PAOM Airport Information

Runway Information
Runway 03 Length 5576 ft width 150 ft
Elevation 12 ft Threshold 0 ft Heading 42
Runway 21 Length 5576 ft Width 150 ft
Elevation 36 ft Threshold 0 ft Heading 222
Runway 10 Length 6001 ft width 150 ft
Elevation 16 ft Threshold 0 ft Heading 110
Runway 28 Length 6001 ft Width 150 ft
Elevation 21 ft Threshold 0 ft Heading 290
Airport Frequencies
Type ASOS Name ASOS Frequency 119.925 MHZ
Type ATIS Name ATIS Frequency 119.925 MHZ
Type CNTR Name ANCHORAGE Frequency 133.3 MHZ
Type CTAF Name CTAF Frequency 123.6 MHZ
Type FSS Name RDO Frequency 122.45 MHZ
Type MISC Name TWEB Frequency 115 MHZ
Airport Navaids
Type NDB Name Fort Davis Frequency 529 KHZ
Type VOR-DME Name Nome Frequency 115000 KHZ
Type NDB-DME Name Gold Frequency 208 KHZ
Airport Weather Information & NOTAM
ADDS - METARS form results

(1849 UTC 16 November 2018)
Data provider http://aviationweather.gov/metar/data/
 
METAR text: PAOM 161839Z 08012KT 2SM -SN BR BKN009 BKN013 OVC024 M02/M02 A2978 RMK AO2 SNB30 P0000 T10171022
Conditions at: PAOM (NOME , AK, US) observed 1839 UTC 16 November 2018
Temperature: -1.7°C (29°F)
Dewpoint: -2.2°C (28°F) [RH = 96%]
Pressure (altimeter): 29.78 inches Hg (1008.5 mb)
Winds: from the E (80 degrees) at 14 MPH (12 knots; 6.2 m/s)
Visibility: 2.00 miles (3.22 km)
Ceiling: 900 feet AGL
Clouds: broken clouds at 900 feet AGL
broken clouds at 1300 feet AGL
overcast cloud deck at 2400 feet AGL
Weather: -SN BR  (light snow, mist)

METAR text: PAOM 161802Z 09013KT 10SM BKN010 BKN017 OVC090 M02/M03 A2979 RMK AO2 T10171028
Conditions at: PAOM (NOME , AK, US) observed 1802 UTC 16 November 2018
Temperature: -1.7°C (29°F)
Dewpoint: -2.8°C (27°F) [RH = 92%]
Pressure (altimeter): 29.79 inches Hg (1008.9 mb)
Winds: from the E (90 degrees) at 15 MPH (13 knots; 6.7 m/s)
Visibility: 10 or more miles (16+ km)
Ceiling: 1000 feet AGL
Clouds: broken clouds at 1000 feet AGL
broken clouds at 1700 feet AGL
overcast cloud deck at 9000 feet AGL
Weather: no significant weather observed at this time

METAR text: PAOM 161753Z 08014KT 10SM FEW012 BKN017 OVC090 M02/M03 A2979 RMK AO2 SLP088 T10171033 11017 21022 58017
Conditions at: PAOM (NOME , AK, US) observed 1753 UTC 16 November 2018
Temperature: -1.7°C (29°F)
Dewpoint: -3.3°C (26°F) [RH = 89%]
Pressure (altimeter): 29.79 inches Hg (1008.9 mb)
[Sea-level pressure: 1008.8 mb]
Winds: from the E (80 degrees) at 16 MPH (14 knots; 7.2 m/s)
Visibility: 10 or more miles (16+ km)
Ceiling: 1700 feet AGL
Clouds: few clouds at 1200 feet AGL
broken clouds at 1700 feet AGL
overcast cloud deck at 9000 feet AGL
Weather: no significant weather observed at this time

Forecast for: PAOM (NOME , AK, US)
Text: PAOM 161815Z 1618/1718 09013KT P6SM VCSH BKN015 BKN050 BKN100
Forecast period: 1800 to 2000 UTC 16 November 2018
Forecast type: FROM: standard forecast or significant change
Winds: from the E (90 degrees) at 15 MPH (13 knots; 6.7 m/s)
Visibility: 6 or more miles 10+ km)
Ceiling: 1500 feet AGL
Clouds: broken clouds at 1500 feet AGL
broken clouds at 5000 feet AGL
broken clouds at 10000 feet AGL
Weather: VCSH  (showers in vicinity)
Text: FM162000 09013KT 6SM -SN BR BKN015 OVC050
Forecast period: 2000 to 2200 UTC 16 November 2018
Forecast type: FROM: standard forecast or significant change
Winds: from the E (90 degrees) at 15 MPH (13 knots; 6.7 m/s)
Visibility: 6 miles (10 km)
Ceiling: 1500 feet AGL
Clouds: broken clouds at 1500 feet AGL
overcast cloud deck at 5000 feet AGL
Weather: -SN BR  (light snow, mist)
Text: FM162200 10013KT 2SM -SN BR BKN010 OVC015
Forecast period: 2200 UTC 16 November 2018 to 1800 UTC 17 November 2018
Forecast type: FROM: standard forecast or significant change
Winds: from the E (100 degrees) at 15 MPH (13 knots; 6.7 m/s)
Visibility: 2.00 miles (3.22 km)
Ceiling: 1000 feet AGL
Clouds: broken clouds at 1000 feet AGL
overcast cloud deck at 1500 feet AGL
Weather: -SN BR  (light snow, mist)